This is the latest recevied weather packets stored in our database for station/object DJ0JJ-11. If no packets are shown the sender has not sent any weather packets the latest 10 day(s).
| Time | Temp. | Humidity | Pressure | Rain* | Wind** | Luminosity | Snow |
|---|---|---|---|---|---|---|---|
| 1787872830 | 23.33° C | 73% | 1012.5 hPa | - | - | - | - |
| 1787871930 | 23.33° C | 74% | 1012.6 hPa | - | - | - | - |
| 1787871030 | 22.78° C | 79% | 1012.7 hPa | - | - | - | - |
| 1787870130 | 22.78° C | 78% | 1011.2 hPa | - | - | - | - |
| 1787869229 | 23.33° C | 76% | 1010.8 hPa | - | - | - | - |
| 1787868329 | 22.78° C | 77% | 1010.7 hPa | - | - | - | - |
| 1787867429 | 22.78° C | 78% | 1010.7 hPa | - | - | - | - |
| 1787866529 | 23.33° C | 75% | 1010.9 hPa | - | - | - | - |
| 1787865629 | 23.33° C | 74% | 1010.8 hPa | - | - | - | - |
| 1787864729 | 23.89° C | 72% | 1010.7 hPa | - | - | - | - |
| 1787863829 | 23.89° C | 72% | 1010.6 hPa | - | - | - | - |
| 1787862928 | 24.44° C | 69% | 1010.7 hPa | - | - | - | - |
| 1787862028 | 25° C | 68% | 1010.5 hPa | - | - | - | - |
| 1787861128 | 25° C | 66% | 1010.6 hPa | - | - | - | - |
| 1787860230 | 25° C | 65% | 1010.7 hPa | - | - | - | - |
| 1787859330 | 25.56° C | 64% | 1010.7 hPa | - | - | - | - |
| 1787858430 | 26.11° C | 61% | 1010.9 hPa | - | - | - | - |
| 1787857530 | 26.11° C | 59% | 1010.8 hPa | - | - | - | - |
| 1787856630 | 26.67° C | 57% | 1010.8 hPa | - | - | - | - |
| 1787855730 | 27.22° C | 56% | 1010.7 hPa | - | - | - | - |
| 1787854830 | 27.22° C | 56% | 1011.1 hPa | - | - | - | - |
| 1787853930 | 27.22° C | 58% | 1011.3 hPa | - | - | - | - |
| 1787853030 | 27.22° C | 56% | 1011.2 hPa | - | - | - | - |
| 1787852129 | 27.78° C | 55% | 1011.5 hPa | - | - | - | - |
| 1787851229 | 28.33° C | 53% | 1011.6 hPa | - | - | - | - |
* Rain since midnight (hover to see other rain measurements)
** Current wind speed in m/s (hover to see current wind gust speed)